sensor_id;sensor_type;location;lat;lon;timestamp;pressure;altitude;pressure_sealevel;temperature;humidity
8298;BME280;4187;42.778;23.242;2023-09-08T00:01:13;95825.97;;;20.45;100.00
8298;BME280;4187;42.778;23.242;2023-09-08T00:03:40;95821.97;;;20.41;100.00
8298;BME280;4187;42.778;23.242;2023-09-08T00:06:07;95831.25;;;20.39;100.00
8298;BME280;4187;42.778;23.242;2023-09-08T00:08:34;95823.06;;;20.47;100.00
8298;BME280;4187;42.778;23.242;2023-09-08T00:11:02;95818.50;;;20.41;100.00
8298;BME280;4187;42.778;23.242;2023-09-08T00:13:30;95826.53;;;20.41;100.00
8298;BME280;4187;42.778;23.242;2023-09-08T00:15:57;95820.09;;;20.35;100.00
8298;BME280;4187;42.778;23.242;2023-09-08T00:18:23;95818.03;;;20.37;100.00
8298;BME280;4187;42.778;23.242;2023-09-08T00:20:50;95811.81;;;20.30;100.00
8298;BME280;4187;42.778;23.242;2023-09-08T00:23:17;95812.19;;;20.27;100.00
8298;BME280;4187;42.778;23.242;2023-09-08T00:25:44;95814.38;;;20.23;100.00
8298;BME280;4187;42.778;23.242;2023-09-08T00:28:12;95820.31;;;20.19;100.00
8298;BME280;4187;42.778;23.242;2023-09-08T00:30:39;95795.41;;;20.04;100.00
8298;BME280;4187;42.778;23.242;2023-09-08T00:33:06;95818.78;;;20.10;100.00
8298;BME280;4187;42.778;23.242;2023-09-08T00:35:34;95809.19;;;20.01;100.00
8298;BME280;4187;42.778;23.242;2023-09-08T00:38:01;95774.28;;;19.73;100.00
8298;BME280;4187;42.778;23.242;2023-09-08T00:41:02;95805.41;;;19.95;100.00
8298;BME280;4187;42.778;23.242;2023-09-08T00:43:45;95812.81;;;19.93;100.00
8298;BME280;4187;42.778;23.242;2023-09-08T00:46:12;95812.34;;;19.90;100.00
8298;BME280;4187;42.778;23.242;2023-09-08T00:48:39;95818.91;;;19.87;100.00
8298;BME280;4187;42.778;23.242;2023-09-08T00:51:06;95817.06;;;19.88;100.00
8298;BME280;4187;42.778;23.242;2023-09-08T00:53:35;95814.47;;;19.94;100.00
8298;BME280;4187;42.778;23.242;2023-09-08T00:56:02;95808.88;;;19.89;100.00
8298;BME280;4187;42.778;23.242;2023-09-08T00:58:29;95814.84;;;19.91;100.00
8298;BME280;4187;42.778;23.242;2023-09-08T01:00:58;95807.41;;;19.87;100.00
8298;BME280;4187;42.778;23.242;2023-09-08T01:03:25;95812.47;;;19.82;100.00
8298;BME280;4187;42.778;23.242;2023-09-08T01:05:53;95803.78;;;19.80;100.00
8298;BME280;4187;42.778;23.242;2023-09-08T01:08:20;95799.47;;;19.79;100.00
8298;BME280;4187;42.778;23.242;2023-09-08T01:10:47;95803.38;;;19.76;100.00
8298;BME280;4187;42.778;23.242;2023-09-08T01:13:14;95793.13;;;19.65;100.00
8298;BME280;4187;42.778;23.242;2023-09-08T01:15:41;95799.28;;;19.65;100.00
8298;BME280;4187;42.778;23.242;2023-09-08T01:18:09;95804.84;;;19.64;100.00
8298;BME280;4187;42.778;23.242;2023-09-08T01:20:48;95774.53;;;19.42;100.00
8298;BME280;4187;42.778;23.242;2023-09-08T01:23:21;95796.47;;;19.52;100.00
8298;BME280;4187;42.778;23.242;2023-09-08T01:25:55;95797.56;;;19.58;100.00
8298;BME280;4187;42.778;23.242;2023-09-08T01:28:23;95797.88;;;19.48;100.00
8298;BME280;4187;42.778;23.242;2023-09-08T01:30:51;95802.97;;;19.43;100.00
8298;BME280;4187;42.778;23.242;2023-09-08T01:33:19;95800.28;;;19.43;100.00
8298;BME280;4187;42.778;23.242;2023-09-08T01:35:47;95789.63;;;19.35;100.00
8298;BME280;4187;42.778;23.242;2023-09-08T01:38:14;95786.22;;;19.27;100.00
8298;BME280;4187;42.778;23.242;2023-09-08T01:40:41;95795.81;;;19.36;100.00
8298;BME280;4187;42.778;23.242;2023-09-08T01:43:09;95786.28;;;19.33;100.00
8298;BME280;4187;42.778;23.242;2023-09-08T01:45:36;95780.03;;;19.26;100.00
8298;BME280;4187;42.778;23.242;2023-09-08T01:48:03;95784.91;;;19.23;100.00
8298;BME280;4187;42.778;23.242;2023-09-08T01:50:30;95780.13;;;19.18;100.00
8298;BME280;4187;42.778;23.242;2023-09-08T01:52:57;95785.69;;;19.17;100.00
8298;BME280;4187;42.778;23.242;2023-09-08T01:55:24;95777.34;;;19.11;100.00
8298;BME280;4187;42.778;23.242;2023-09-08T01:57:51;95770.72;;;19.07;100.00
8298;BME280;4187;42.778;23.242;2023-09-08T02:00:19;95771.47;;;19.01;100.00
8298;BME280;4187;42.778;23.242;2023-09-08T02:02:46;95763.81;;;18.98;100.00
8298;BME280;4187;42.778;23.242;2023-09-08T02:05:14;95765.47;;;18.99;100.00
8298;BME280;4187;42.778;23.242;2023-09-08T02:07:41;95751.16;;;18.92;100.00
8298;BME280;4187;42.778;23.242;2023-09-08T02:10:08;95763.53;;;18.93;100.00
8298;BME280;4187;42.778;23.242;2023-09-08T02:12:36;95755.78;;;18.98;100.00
8298;BME280;4187;42.778;23.242;2023-09-08T02:15:03;95761.25;;;19.05;100.00
8298;BME280;4187;42.778;23.242;2023-09-08T02:17:32;95758.94;;;19.02;100.00
8298;BME280;4187;42.778;23.242;2023-09-08T02:19:59;95698.63;;;18.70;100.00
8298;BME280;4187;42.778;23.242;2023-09-08T02:22:26;95771.00;;;19.13;100.00
8298;BME280;4187;42.778;23.242;2023-09-08T02:24:52;95761.72;;;19.08;100.00
8298;BME280;4187;42.778;23.242;2023-09-08T02:27:19;95765.66;;;19.13;100.00
8298;BME280;4187;42.778;23.242;2023-09-08T02:29:47;95759.03;;;19.08;100.00
8298;BME280;4187;42.778;23.242;2023-09-08T02:32:13;95769.53;;;19.10;100.00
8298;BME280;4187;42.778;23.242;2023-09-08T02:34:42;95773.88;;;19.11;100.00
8298;BME280;4187;42.778;23.242;2023-09-08T02:37:09;95761.41;;;19.03;100.00
8298;BME280;4187;42.778;23.242;2023-09-08T02:39:35;95763.72;;;19.06;100.00
8298;BME280;4187;42.778;23.242;2023-09-08T02:42:03;95711.44;;;18.75;100.00
8298;BME280;4187;42.778;23.242;2023-09-08T02:44:31;95767.59;;;19.04;100.00
8298;BME280;4187;42.778;23.242;2023-09-08T02:46:58;95763.28;;;19.03;100.00
8298;BME280;4187;42.778;23.242;2023-09-08T02:49:25;95762.06;;;19.05;100.00
8298;BME280;4187;42.778;23.242;2023-09-08T02:51:53;95704.41;;;18.74;100.00
8298;BME280;4187;42.778;23.242;2023-09-08T02:54:20;95754.22;;;19.04;100.00
8298;BME280;4187;42.778;23.242;2023-09-08T02:56:47;95756.25;;;19.02;100.00
8298;BME280;4187;42.778;23.242;2023-09-08T02:59:14;95743.44;;;18.97;100.00
8298;BME280;4187;42.778;23.242;2023-09-08T03:01:42;95757.19;;;18.94;100.00
8298;BME280;4187;42.778;23.242;2023-09-08T03:04:09;95750.53;;;18.90;100.00
8298;BME280;4187;42.778;23.242;2023-09-08T03:06:35;95749.78;;;18.82;100.00
8298;BME280;4187;42.778;23.242;2023-09-08T03:09:04;95756.44;;;18.86;100.00
8298;BME280;4187;42.778;23.242;2023-09-08T03:11:31;95755.13;;;18.82;100.00
8298;BME280;4187;42.778;23.242;2023-09-08T03:13:58;95762.97;;;18.83;100.00
8298;BME280;4187;42.778;23.242;2023-09-08T03:16:24;95763.16;;;18.82;100.00
8298;BME280;4187;42.778;23.242;2023-09-08T03:18:51;95753.38;;;18.74;100.00
8298;BME280;4187;42.778;23.242;2023-09-08T03:21:18;95759.09;;;18.71;100.00
8298;BME280;4187;42.778;23.242;2023-09-08T03:23:45;95756.50;;;18.63;100.00
8298;BME280;4187;42.778;23.242;2023-09-08T03:26:13;95758.16;;;18.64;100.00
8298;BME280;4187;42.778;23.242;2023-09-08T03:28:42;95749.03;;;18.59;100.00
8298;BME280;4187;42.778;23.242;2023-09-08T03:31:08;95749.94;;;18.51;100.00
8298;BME280;4187;42.778;23.242;2023-09-08T03:33:35;95743.97;;;18.49;100.00
8298;BME280;4187;42.778;23.242;2023-09-08T03:36:03;95745.50;;;18.43;100.00
8298;BME280;4187;42.778;23.242;2023-09-08T03:38:30;95751.19;;;18.40;100.00
8298;BME280;4187;42.778;23.242;2023-09-08T03:40:57;95748.53;;;18.40;100.00
8298;BME280;4187;42.778;23.242;2023-09-08T03:43:25;95747.75;;;18.32;100.00
8298;BME280;4187;42.778;23.242;2023-09-08T03:45:51;95748.47;;;18.26;100.00
8298;BME280;4187;42.778;23.242;2023-09-08T03:48:18;95745.44;;;18.29;100.00
8298;BME280;4187;42.778;23.242;2023-09-08T03:50:45;95745.53;;;18.21;100.00
8298;BME280;4187;42.778;23.242;2023-09-08T03:53:12;95746.06;;;18.16;100.00
8298;BME280;4187;42.778;23.242;2023-09-08T03:55:39;95742.72;;;18.14;100.00
8298;BME280;4187;42.778;23.242;2023-09-08T03:58:06;95746.59;;;18.12;100.00
8298;BME280;4187;42.778;23.242;2023-09-08T04:00:35;95741.03;;;17.99;100.00
8298;BME280;4187;42.778;23.242;2023-09-08T04:03:02;95747.75;;;17.95;100.00
8298;BME280;4187;42.778;23.242;2023-09-08T04:05:29;95750.19;;;17.81;100.00
8298;BME280;4187;42.778;23.242;2023-09-08T04:07:56;95745.47;;;17.53;100.00
8298;BME280;4187;42.778;23.242;2023-09-08T04:10:23;95751.41;;;17.40;100.00
8298;BME280;4187;42.778;23.242;2023-09-08T04:12:50;95750.00;;;17.21;100.00
8298;BME280;4187;42.778;23.242;2023-09-08T04:15:17;95744.38;;;17.08;100.00
8298;BME280;4187;42.778;23.242;2023-09-08T04:17:45;95732.75;;;16.93;100.00
8298;BME280;4187;42.778;23.242;2023-09-08T04:20:12;95746.78;;;16.87;100.00
8298;BME280;4187;42.778;23.242;2023-09-08T04:22:40;95749.50;;;16.71;100.00
8298;BME280;4187;42.778;23.242;2023-09-08T04:25:08;95750.19;;;16.73;100.00
8298;BME280;4187;42.778;23.242;2023-09-08T04:27:35;95753.81;;;16.80;100.00
8298;BME280;4187;42.778;23.242;2023-09-08T04:30:02;95742.66;;;16.77;100.00
8298;BME280;4187;42.778;23.242;2023-09-08T04:32:29;95702.09;;;16.42;100.00
8298;BME280;4187;42.778;23.242;2023-09-08T04:34:57;95766.63;;;16.77;100.00
8298;BME280;4187;42.778;23.242;2023-09-08T04:37:24;95761.00;;;16.71;100.00
8298;BME280;4187;42.778;23.242;2023-09-08T04:39:51;95764.69;;;16.70;100.00
8298;BME280;4187;42.778;23.242;2023-09-08T04:42:18;95770.47;;;16.74;100.00
8298;BME280;4187;42.778;23.242;2023-09-08T04:44:45;95769.81;;;16.80;100.00
8298;BME280;4187;42.778;23.242;2023-09-08T04:47:12;95771.81;;;16.78;100.00
8298;BME280;4187;42.778;23.242;2023-09-08T04:49:38;95762.16;;;16.77;100.00
8298;BME280;4187;42.778;23.242;2023-09-08T04:52:07;95779.13;;;16.92;100.00
8298;BME280;4187;42.778;23.242;2023-09-08T04:54:34;95768.56;;;16.99;100.00
8298;BME280;4187;42.778;23.242;2023-09-08T04:57:00;95766.44;;;16.94;100.00
8298;BME280;4187;42.778;23.242;2023-09-08T04:59:28;95774.41;;;17.02;100.00
8298;BME280;4187;42.778;23.242;2023-09-08T05:01:54;95748.44;;;16.96;100.00
8298;BME280;4187;42.778;23.242;2023-09-08T05:04:21;95771.50;;;17.20;100.00
8298;BME280;4187;42.778;23.242;2023-09-08T05:06:48;95776.81;;;17.20;100.00
8298;BME280;4187;42.778;23.242;2023-09-08T05:09:16;95756.13;;;17.30;100.00
8298;BME280;4187;42.778;23.242;2023-09-08T05:11:43;95771.84;;;17.56;100.00
8298;BME280;4187;42.778;23.242;2023-09-08T05:14:10;95756.91;;;17.69;100.00
8298;BME280;4187;42.778;23.242;2023-09-08T05:16:37;95775.44;;;17.93;100.00
8298;BME280;4187;42.778;23.242;2023-09-08T05:19:10;95787.31;;;18.14;100.00
8298;BME280;4187;42.778;23.242;2023-09-08T05:21:37;95783.69;;;18.29;100.00
8298;BME280;4187;42.778;23.242;2023-09-08T05:24:06;95771.44;;;18.35;100.00
8298;BME280;4187;42.778;23.242;2023-09-08T05:26:35;95787.19;;;18.52;100.00
8298;BME280;4187;42.778;23.242;2023-09-08T05:29:02;95747.44;;;18.49;100.00
8298;BME280;4187;42.778;23.242;2023-09-08T05:31:29;95784.84;;;18.87;100.00
8298;BME280;4187;42.778;23.242;2023-09-08T05:33:56;95794.91;;;18.99;100.00
8298;BME280;4187;42.778;23.242;2023-09-08T05:36:23;95794.09;;;19.14;100.00
8298;BME280;4187;42.778;23.242;2023-09-08T05:38:50;95787.97;;;19.20;100.00
8298;BME280;4187;42.778;23.242;2023-09-08T05:41:17;95791.66;;;19.33;100.00
8298;BME280;4187;42.778;23.242;2023-09-08T05:43:45;95798.13;;;19.53;100.00
8298;BME280;4187;42.778;23.242;2023-09-08T05:46:12;95797.28;;;19.67;100.00
8298;BME280;4187;42.778;23.242;2023-09-08T05:48:39;95797.22;;;19.82;100.00
8298;BME280;4187;42.778;23.242;2023-09-08T05:51:06;95800.03;;;19.95;100.00
8298;BME280;4187;42.778;23.242;2023-09-08T05:53:33;95802.69;;;20.10;100.00
8298;BME280;4187;42.778;23.242;2023-09-08T05:56:01;95800.34;;;20.21;100.00
8298;BME280;4187;42.778;23.242;2023-09-08T05:58:27;95792.06;;;20.38;100.00
8298;BME280;4187;42.778;23.242;2023-09-08T06:00:56;95809.28;;;20.50;100.00
8298;BME280;4187;42.778;23.242;2023-09-08T06:03:23;95788.28;;;20.53;100.00
8298;BME280;4187;42.778;23.242;2023-09-08T06:05:50;95814.69;;;20.77;100.00
8298;BME280;4187;42.778;23.242;2023-09-08T06:08:16;95815.22;;;20.94;100.00
8298;BME280;4187;42.778;23.242;2023-09-08T06:10:43;95818.22;;;21.06;100.00
8298;BME280;4187;42.778;23.242;2023-09-08T06:13:10;95811.91;;;21.20;100.00
8298;BME280;4187;42.778;23.242;2023-09-08T06:15:37;95804.34;;;21.30;100.00
8298;BME280;4187;42.778;23.242;2023-09-08T06:18:05;95820.94;;;21.46;100.00
8298;BME280;4187;42.778;23.242;2023-09-08T06:20:32;95807.34;;;21.55;100.00
8298;BME280;4187;42.778;23.242;2023-09-08T06:22:59;95795.59;;;21.56;100.00
8298;BME280;4187;42.778;23.242;2023-09-08T06:25:26;95820.91;;;21.81;100.00
8298;BME280;4187;42.778;23.242;2023-09-08T06:27:54;95822.00;;;21.93;100.00
8298;BME280;4187;42.778;23.242;2023-09-08T06:30:21;95820.41;;;22.05;100.00
8298;BME280;4187;42.778;23.242;2023-09-08T06:32:48;95826.03;;;22.23;100.00
8298;BME280;4187;42.778;23.242;2023-09-08T06:35:16;95812.38;;;22.18;100.00
8298;BME280;4187;42.778;23.242;2023-09-08T06:37:43;95823.56;;;22.41;100.00
8298;BME280;4187;42.778;23.242;2023-09-08T06:40:10;95826.28;;;22.61;100.00
8298;BME280;4187;42.778;23.242;2023-09-08T06:42:37;95842.28;;;22.89;99.34
8298;BME280;4187;42.778;23.242;2023-09-08T06:45:04;95835.88;;;23.03;98.90
8298;BME280;4187;42.778;23.242;2023-09-08T06:47:31;95854.28;;;23.19;97.19
8298;BME280;4187;42.778;23.242;2023-09-08T06:49:58;95809.75;;;23.03;96.99
8298;BME280;4187;42.778;23.242;2023-09-08T06:52:26;95839.78;;;23.40;97.69
8298;BME280;4187;42.778;23.242;2023-09-08T06:54:53;95840.81;;;23.45;98.65
8298;BME280;4187;42.778;23.242;2023-09-08T06:57:20;95848.44;;;23.68;98.58
8298;BME280;4187;42.778;23.242;2023-09-08T06:59:47;95846.47;;;23.88;97.38
8298;BME280;4187;42.778;23.242;2023-09-08T07:02:14;95855.34;;;24.02;95.07
8298;BME280;4187;42.778;23.242;2023-09-08T07:04:41;95845.78;;;24.12;95.56
8298;BME280;4187;42.778;23.242;2023-09-08T07:07:08;95840.94;;;24.27;95.23
8298;BME280;4187;42.778;23.242;2023-09-08T07:09:37;95850.16;;;24.45;93.28
8298;BME280;4187;42.778;23.242;2023-09-08T07:12:05;95859.84;;;24.59;89.20
8298;BME280;4187;42.778;23.242;2023-09-08T07:14:32;95846.78;;;24.56;87.76
8298;BME280;4187;42.778;23.242;2023-09-08T07:16:59;95853.75;;;24.70;90.34
8298;BME280;4187;42.778;23.242;2023-09-08T07:19:26;95850.59;;;24.79;87.18
8298;BME280;4187;42.778;23.242;2023-09-08T07:21:53;95847.59;;;24.94;87.11
8298;BME280;4187;42.778;23.242;2023-09-08T07:24:19;95841.53;;;24.67;85.38
8298;BME280;4187;42.778;23.242;2023-09-08T07:26:48;95843.34;;;24.42;86.00
8298;BME280;4187;42.778;23.242;2023-09-08T07:29:15;95854.22;;;24.29;86.55
8298;BME280;4187;42.778;23.242;2023-09-08T07:31:42;95843.41;;;24.29;85.47
8298;BME280;4187;42.778;23.242;2023-09-08T07:34:09;95847.53;;;24.38;85.87
8298;BME280;4187;42.778;23.242;2023-09-08T07:36:37;95850.88;;;24.65;86.85
8298;BME280;4187;42.778;23.242;2023-09-08T07:39:04;95851.47;;;24.73;84.48
8298;BME280;4187;42.778;23.242;2023-09-08T07:41:31;95851.50;;;24.67;84.49
8298;BME280;4187;42.778;23.242;2023-09-08T07:43:59;95847.75;;;24.68;83.11
8298;BME280;4187;42.778;23.242;2023-09-08T07:46:27;95810.13;;;24.42;84.85
8298;BME280;4187;42.778;23.242;2023-09-08T07:48:54;95843.25;;;24.55;82.86
8298;BME280;4187;42.778;23.242;2023-09-08T07:51:20;95842.03;;;24.51;83.08
8298;BME280;4187;42.778;23.242;2023-09-08T07:53:47;95836.13;;;24.67;83.05
8298;BME280;4187;42.778;23.242;2023-09-08T07:56:37;95838.88;;;24.92;83.08
8298;BME280;4187;42.778;23.242;2023-09-08T07:59:10;95838.16;;;24.72;83.13
8298;BME280;4187;42.778;23.242;2023-09-08T08:01:37;95820.06;;;24.48;84.32
8298;BME280;4187;42.778;23.242;2023-09-08T08:04:04;95836.59;;;24.58;84.14
8298;BME280;4187;42.778;23.242;2023-09-08T08:06:31;95845.91;;;24.62;83.53
8298;BME280;4187;42.778;23.242;2023-09-08T08:08:59;95809.84;;;24.56;85.53
8298;BME280;4187;42.778;23.242;2023-09-08T08:11:26;95813.63;;;24.80;89.25
8298;BME280;4187;42.778;23.242;2023-09-08T08:13:53;95833.38;;;25.05;85.50
8298;BME280;4187;42.778;23.242;2023-09-08T08:16:23;95809.53;;;24.95;84.71
8298;BME280;4187;42.778;23.242;2023-09-08T08:18:50;95826.25;;;25.11;85.07
8298;BME280;4187;42.778;23.242;2023-09-08T08:21:17;95830.53;;;25.18;84.29
8298;BME280;4187;42.778;23.242;2023-09-08T08:23:43;95764.59;;;24.83;83.30
8298;BME280;4187;42.778;23.242;2023-09-08T08:26:10;95832.72;;;25.28;82.75
8298;BME280;4187;42.778;23.242;2023-09-08T08:28:37;95831.78;;;25.40;83.83
8298;BME280;4187;42.778;23.242;2023-09-08T08:31:04;95826.50;;;25.52;84.29
8298;BME280;4187;42.778;23.242;2023-09-08T08:33:32;95825.53;;;25.65;83.60
8298;BME280;4187;42.778;23.242;2023-09-08T08:35:59;95809.41;;;25.76;82.89
8298;BME280;4187;42.778;23.242;2023-09-08T08:38:26;95820.25;;;26.06;82.45
8298;BME280;4187;42.778;23.242;2023-09-08T08:40:53;95816.25;;;26.27;81.11
8298;BME280;4187;42.778;23.242;2023-09-08T08:43:21;95812.13;;;26.54;81.37
8298;BME280;4187;42.778;23.242;2023-09-08T08:45:49;95784.50;;;26.34;74.18
8298;BME280;4187;42.778;23.242;2023-09-08T08:48:18;95804.94;;;26.18;72.53
8298;BME280;4187;42.778;23.242;2023-09-08T08:50:48;95786.22;;;26.17;74.40
8298;BME280;4187;42.778;23.242;2023-09-08T08:53:17;95801.91;;;26.26;74.38
8298;BME280;4187;42.778;23.242;2023-09-08T08:55:44;95807.81;;;26.35;74.01
8298;BME280;4187;42.778;23.242;2023-09-08T08:58:12;95800.81;;;26.16;73.73
8298;BME280;4187;42.778;23.242;2023-09-08T09:00:41;95794.47;;;26.22;72.94
8298;BME280;4187;42.778;23.242;2023-09-08T09:03:09;95808.00;;;26.22;73.23
8298;BME280;4187;42.778;23.242;2023-09-08T09:05:36;95805.28;;;26.03;73.92
8298;BME280;4187;42.778;23.242;2023-09-08T09:08:06;95803.88;;;25.83;73.71
8298;BME280;4187;42.778;23.242;2023-09-08T09:10:33;95787.47;;;25.84;74.82
8298;BME280;4187;42.778;23.242;2023-09-08T09:13:00;95795.81;;;26.12;75.01
8298;BME280;4187;42.778;23.242;2023-09-08T09:15:29;95799.25;;;26.38;73.35
8298;BME280;4187;42.778;23.242;2023-09-08T09:18:03;95796.03;;;26.29;71.73
8298;BME280;4187;42.778;23.242;2023-09-08T09:20:31;95811.69;;;26.27;72.35
8298;BME280;4187;42.778;23.242;2023-09-08T09:22:58;95795.91;;;26.24;73.90
8298;BME280;4187;42.778;23.242;2023-09-08T09:25:28;95794.16;;;26.30;74.06
8298;BME280;4187;42.778;23.242;2023-09-08T09:27:56;95791.66;;;26.17;73.89
8298;BME280;4187;42.778;23.242;2023-09-08T09:30:24;95801.09;;;26.07;74.63
8298;BME280;4187;42.778;23.242;2023-09-08T09:32:59;95794.25;;;26.23;73.92
8298;BME280;4187;42.778;23.242;2023-09-08T09:35:39;95795.47;;;26.39;72.52
8298;BME280;4187;42.778;23.242;2023-09-08T09:38:07;95792.81;;;26.21;71.33
8298;BME280;4187;42.778;23.242;2023-09-08T09:40:36;95792.69;;;25.97;71.99
8298;BME280;4187;42.778;23.242;2023-09-08T09:43:05;95798.78;;;25.93;73.06
8298;BME280;4187;42.778;23.242;2023-09-08T09:45:33;95795.91;;;25.88;73.40
8298;BME280;4187;42.778;23.242;2023-09-08T09:48:02;95781.88;;;25.79;75.54
8298;BME280;4187;42.778;23.242;2023-09-08T09:50:29;95785.59;;;25.48;74.79
8298;BME280;4187;42.778;23.242;2023-09-08T09:52:59;95779.00;;;25.63;76.09
8298;BME280;4187;42.778;23.242;2023-09-08T09:55:26;95788.28;;;25.67;75.06
8298;BME280;4187;42.778;23.242;2023-09-08T09:57:58;95765.19;;;25.82;74.79
8298;BME280;4187;42.778;23.242;2023-09-08T10:00:26;95781.31;;;26.07;73.94
8298;BME280;4187;42.778;23.242;2023-09-08T10:02:54;95781.44;;;26.00;74.97
8298;BME280;4187;42.778;23.242;2023-09-08T10:05:22;95781.88;;;25.79;74.91
8298;BME280;4187;42.778;23.242;2023-09-08T10:07:50;95771.22;;;25.84;74.42
8298;BME280;4187;42.778;23.242;2023-09-08T10:10:18;95728.72;;;25.55;74.92
8298;BME280;4187;42.778;23.242;2023-09-08T10:12:47;95767.78;;;25.77;74.20
8298;BME280;4187;42.778;23.242;2023-09-08T10:15:19;95773.19;;;26.07;74.72
8298;BME280;4187;42.778;23.242;2023-09-08T10:17:52;95779.44;;;26.26;74.73
8298;BME280;4187;42.778;23.242;2023-09-08T10:20:22;95774.16;;;26.31;74.05
8298;BME280;4187;42.778;23.242;2023-09-08T10:22:53;95766.91;;;26.43;72.92
8298;BME280;4187;42.778;23.242;2023-09-08T10:25:21;95755.31;;;26.77;75.84
8298;BME280;4187;42.778;23.242;2023-09-08T10:27:51;95760.06;;;26.82;71.69
8298;BME280;4187;42.778;23.242;2023-09-08T10:30:20;95764.06;;;26.91;72.17
8298;BME280;4187;42.778;23.242;2023-09-08T10:32:49;95772.44;;;26.89;71.32
8298;BME280;4187;42.778;23.242;2023-09-08T10:35:16;95765.50;;;27.05;71.93
8298;BME280;4187;42.778;23.242;2023-09-08T10:37:44;95772.91;;;27.33;70.87
8298;BME280;4187;42.778;23.242;2023-09-08T10:40:21;95762.41;;;27.36;69.19
8298;BME280;4187;42.778;23.242;2023-09-08T10:42:48;95771.97;;;27.62;69.82
8298;BME280;4187;42.778;23.242;2023-09-08T10:45:17;95762.59;;;27.93;70.72
8298;BME280;4187;42.778;23.242;2023-09-08T10:47:57;95757.53;;;27.84;69.04
8298;BME280;4187;42.778;23.242;2023-09-08T10:50:31;95731.56;;;27.49;68.71
8298;BME280;4187;42.778;23.242;2023-09-08T10:53:06;95765.88;;;27.55;68.72
8298;BME280;4187;42.778;23.242;2023-09-08T10:55:36;95758.16;;;27.63;70.56
8298;BME280;4187;42.778;23.242;2023-09-08T10:58:04;95744.16;;;27.55;69.18
8298;BME280;4187;42.778;23.242;2023-09-08T11:00:43;95752.69;;;27.86;70.70
8298;BME280;4187;42.778;23.242;2023-09-08T11:03:12;95746.66;;;28.24;69.40
8298;BME280;4187;42.778;23.242;2023-09-08T11:05:39;95745.16;;;28.62;70.01
8298;BME280;4187;42.778;23.242;2023-09-08T11:08:07;95757.88;;;28.89;67.72
8298;BME280;4187;42.778;23.242;2023-09-08T11:10:35;95736.56;;;28.98;67.58
8298;BME280;4187;42.778;23.242;2023-09-08T11:13:04;95751.44;;;28.95;68.20
8298;BME280;4187;42.778;23.242;2023-09-08T11:15:31;95736.44;;;29.10;66.71
8298;BME280;4187;42.778;23.242;2023-09-08T11:18:04;95734.91;;;29.30;65.21
8298;BME280;4187;42.778;23.242;2023-09-08T11:20:34;95703.53;;;29.06;66.98
8298;BME280;4187;42.778;23.242;2023-09-08T11:23:01;95726.34;;;29.05;68.29
8298;BME280;4187;42.778;23.242;2023-09-08T11:25:31;95726.66;;;29.09;66.27
8298;BME280;4187;42.778;23.242;2023-09-08T11:27:58;95731.84;;;29.10;65.59
8298;BME280;4187;42.778;23.242;2023-09-08T11:30:25;95736.88;;;28.85;67.23
8298;BME280;4187;42.778;23.242;2023-09-08T11:32:52;95730.72;;;28.44;65.40
8298;BME280;4187;42.778;23.242;2023-09-08T11:35:19;95714.72;;;28.15;67.71
8298;BME280;4187;42.778;23.242;2023-09-08T11:37:48;95701.81;;;28.05;67.45
8298;BME280;4187;42.778;23.242;2023-09-08T11:40:17;95727.50;;;28.14;66.64
8298;BME280;4187;42.778;23.242;2023-09-08T11:42:45;95715.53;;;28.15;69.70
8298;BME280;4187;42.778;23.242;2023-09-08T11:45:13;95723.47;;;28.17;69.46
8298;BME280;4187;42.778;23.242;2023-09-08T11:47:43;95701.41;;;28.02;68.63
8298;BME280;4187;42.778;23.242;2023-09-08T11:50:13;95708.06;;;28.06;69.49
8298;BME280;4187;42.778;23.242;2023-09-08T11:52:43;95690.13;;;28.05;67.75
8298;BME280;4187;42.778;23.242;2023-09-08T11:55:12;95682.69;;;28.00;71.45
8298;BME280;4187;42.778;23.242;2023-09-08T11:57:40;95700.50;;;28.08;69.97
8298;BME280;4187;42.778;23.242;2023-09-08T12:00:08;95710.06;;;28.27;70.08
8298;BME280;4187;42.778;23.242;2023-09-08T12:02:40;95679.31;;;28.21;67.31
8298;BME280;4187;42.778;23.242;2023-09-08T12:05:11;95707.97;;;28.17;67.16
8298;BME280;4187;42.778;23.242;2023-09-08T12:07:39;95681.19;;;28.21;68.74
8298;BME280;4187;42.778;23.242;2023-09-08T12:10:11;95702.94;;;28.37;69.91
8298;BME280;4187;42.778;23.242;2023-09-08T12:12:43;95697.97;;;28.34;68.46
8298;BME280;4187;42.778;23.242;2023-09-08T12:15:11;95704.69;;;28.15;68.50
8298;BME280;4187;42.778;23.242;2023-09-08T12:17:53;95698.53;;;27.92;67.82
8298;BME280;4187;42.778;23.242;2023-09-08T12:20:20;95687.28;;;28.00;70.48
8298;BME280;4187;42.778;23.242;2023-09-08T12:22:48;95689.97;;;28.11;69.31
8298;BME280;4187;42.778;23.242;2023-09-08T12:25:17;95663.47;;;27.90;68.61
8298;BME280;4187;42.778;23.242;2023-09-08T12:27:45;95684.97;;;27.92;69.58
8298;BME280;4187;42.778;23.242;2023-09-08T12:30:17;95678.22;;;27.94;68.64
8298;BME280;4187;42.778;23.242;2023-09-08T12:32:46;95670.56;;;27.91;68.87
8298;BME280;4187;42.778;23.242;2023-09-08T12:35:20;95680.94;;;27.94;69.40
8298;BME280;4187;42.778;23.242;2023-09-08T12:37:53;95672.94;;;27.87;68.05
8298;BME280;4187;42.778;23.242;2023-09-08T12:40:21;95671.53;;;27.85;67.78
8298;BME280;4187;42.778;23.242;2023-09-08T12:42:48;95667.84;;;27.91;68.30
8298;BME280;4187;42.778;23.242;2023-09-08T12:45:15;95671.13;;;28.05;67.57
8298;BME280;4187;42.778;23.242;2023-09-08T12:47:50;95659.03;;;28.12;69.82
8298;BME280;4187;42.778;23.242;2023-09-08T12:50:17;95658.56;;;28.32;68.80
8298;BME280;4187;42.778;23.242;2023-09-08T12:52:44;95655.94;;;28.37;68.82
8298;BME280;4187;42.778;23.242;2023-09-08T12:55:14;95662.44;;;28.19;67.48
8298;BME280;4187;42.778;23.242;2023-09-08T12:57:42;95634.34;;;27.69;68.93
8298;BME280;4187;42.778;23.242;2023-09-08T13:00:10;95675.56;;;27.82;69.46
8298;BME280;4187;42.778;23.242;2023-09-08T13:02:37;95657.97;;;27.57;68.28
8298;BME280;4187;42.778;23.242;2023-09-08T13:05:04;95646.28;;;27.68;70.97
8298;BME280;4187;42.778;23.242;2023-09-08T13:07:31;95661.06;;;27.77;69.11
8298;BME280;4187;42.778;23.242;2023-09-08T13:09:58;95671.16;;;27.65;69.22